sensor_id;sensor_type;location;lat;lon;timestamp;P1;durP1;ratioP1;P2;durP2;ratioP2
7295;SDS011;40758;54.038;11.684;2023-09-07T00:00:49;6.28;;;3.45;;
7295;SDS011;40758;54.038;11.684;2023-09-07T00:03:16;7.07;;;3.60;;
7295;SDS011;40758;54.038;11.684;2023-09-07T00:05:43;6.65;;;3.60;;
7295;SDS011;40758;54.038;11.684;2023-09-07T00:08:11;6.15;;;3.70;;
7295;SDS011;40758;54.038;11.684;2023-09-07T00:10:37;6.90;;;3.58;;
7295;SDS011;40758;54.038;11.684;2023-09-07T00:13:04;7.82;;;4.72;;
7295;SDS011;40758;54.038;11.684;2023-09-07T00:15:35;7.53;;;3.85;;
7295;SDS011;40758;54.038;11.684;2023-09-07T00:18:03;8.43;;;4.55;;
7295;SDS011;40758;54.038;11.684;2023-09-07T00:20:30;7.95;;;4.78;;
7295;SDS011;40758;54.038;11.684;2023-09-07T00:22:59;9.05;;;5.25;;
7295;SDS011;40758;54.038;11.684;2023-09-07T00:25:27;8.63;;;4.85;;
7295;SDS011;40758;54.038;11.684;2023-09-07T00:27:54;7.38;;;4.55;;
7295;SDS011;40758;54.038;11.684;2023-09-07T00:30:21;7.53;;;3.90;;
7295;SDS011;40758;54.038;11.684;2023-09-07T00:32:48;8.70;;;5.88;;
7295;SDS011;40758;54.038;11.684;2023-09-07T00:35:14;7.88;;;3.70;;
7295;SDS011;40758;54.038;11.684;2023-09-07T00:37:41;7.40;;;5.03;;
7295;SDS011;40758;54.038;11.684;2023-09-07T00:40:08;12.55;;;5.57;;
7295;SDS011;40758;54.038;11.684;2023-09-07T00:42:36;9.30;;;5.60;;
7295;SDS011;40758;54.038;11.684;2023-09-07T00:45:03;9.40;;;5.32;;
7295;SDS011;40758;54.038;11.684;2023-09-07T00:47:30;9.60;;;5.45;;
7295;SDS011;40758;54.038;11.684;2023-09-07T00:50:00;12.07;;;6.65;;
7295;SDS011;40758;54.038;11.684;2023-09-07T00:52:27;10.43;;;5.28;;
7295;SDS011;40758;54.038;11.684;2023-09-07T00:54:54;9.55;;;5.22;;
7295;SDS011;40758;54.038;11.684;2023-09-07T00:57:21;9.82;;;6.53;;
7295;SDS011;40758;54.038;11.684;2023-09-07T00:59:48;10.45;;;6.07;;
7295;SDS011;40758;54.038;11.684;2023-09-07T01:02:14;9.85;;;6.28;;
7295;SDS011;40758;54.038;11.684;2023-09-07T01:04:41;10.95;;;6.60;;
7295;SDS011;40758;54.038;11.684;2023-09-07T01:10:06;13.27;;;5.90;;
7295;SDS011;40758;54.038;11.684;2023-09-07T01:12:34;11.30;;;6.13;;
7295;SDS011;40758;54.038;11.684;2023-09-07T01:15:01;11.65;;;6.38;;
7295;SDS011;40758;54.038;11.684;2023-09-07T01:17:28;12.05;;;6.55;;
7295;SDS011;40758;54.038;11.684;2023-09-07T01:19:56;13.95;;;9.07;;
7295;SDS011;40758;54.038;11.684;2023-09-07T01:22:26;12.48;;;7.53;;
7295;SDS011;40758;54.038;11.684;2023-09-07T01:24:53;10.38;;;5.93;;
7295;SDS011;40758;54.038;11.684;2023-09-07T01:27:21;14.02;;;8.05;;
7295;SDS011;40758;54.038;11.684;2023-09-07T01:29:49;12.93;;;7.38;;
7295;SDS011;40758;54.038;11.684;2023-09-07T01:32:18;12.30;;;6.57;;
7295;SDS011;40758;54.038;11.684;2023-09-07T01:34:45;13.57;;;7.57;;
7295;SDS011;40758;54.038;11.684;2023-09-07T01:37:12;15.70;;;8.52;;
7295;SDS011;40758;54.038;11.684;2023-09-07T01:39:39;15.00;;;7.55;;
7295;SDS011;40758;54.038;11.684;2023-09-07T01:42:05;14.13;;;8.50;;
7295;SDS011;40758;54.038;11.684;2023-09-07T01:44:32;14.45;;;8.15;;
7295;SDS011;40758;54.038;11.684;2023-09-07T01:46:59;16.88;;;9.25;;
7295;SDS011;40758;54.038;11.684;2023-09-07T01:49:26;15.30;;;8.20;;
7295;SDS011;40758;54.038;11.684;2023-09-07T01:51:53;14.18;;;8.07;;
7295;SDS011;40758;54.038;11.684;2023-09-07T01:54:21;15.43;;;9.90;;
7295;SDS011;40758;54.038;11.684;2023-09-07T01:56:48;15.88;;;9.23;;
7295;SDS011;40758;54.038;11.684;2023-09-07T01:59:15;17.92;;;9.35;;
7295;SDS011;40758;54.038;11.684;2023-09-07T02:01:42;14.65;;;9.35;;
7295;SDS011;40758;54.038;11.684;2023-09-07T02:04:08;14.45;;;8.85;;
7295;SDS011;40758;54.038;11.684;2023-09-07T02:06:35;16.45;;;9.45;;
7295;SDS011;40758;54.038;11.684;2023-09-07T02:09:02;15.93;;;8.48;;
7295;SDS011;40758;54.038;11.684;2023-09-07T02:11:31;14.10;;;9.05;;
7295;SDS011;40758;54.038;11.684;2023-09-07T02:13:58;16.20;;;8.93;;
7295;SDS011;40758;54.038;11.684;2023-09-07T02:16:24;15.70;;;9.02;;
7295;SDS011;40758;54.038;11.684;2023-09-07T02:18:59;18.63;;;9.80;;
7295;SDS011;40758;54.038;11.684;2023-09-07T02:21:27;16.08;;;9.75;;
7295;SDS011;40758;54.038;11.684;2023-09-07T02:23:55;18.13;;;10.40;;
7295;SDS011;40758;54.038;11.684;2023-09-07T02:26:22;17.00;;;9.70;;
7295;SDS011;40758;54.038;11.684;2023-09-07T02:28:48;16.90;;;10.93;;
7295;SDS011;40758;54.038;11.684;2023-09-07T02:31:15;16.67;;;9.63;;
7295;SDS011;40758;54.038;11.684;2023-09-07T02:33:43;18.88;;;9.63;;
7295;SDS011;40758;54.038;11.684;2023-09-07T02:36:13;17.65;;;10.75;;
7295;SDS011;40758;54.038;11.684;2023-09-07T02:38:40;16.83;;;9.40;;
7295;SDS011;40758;54.038;11.684;2023-09-07T02:41:06;17.83;;;9.35;;
7295;SDS011;40758;54.038;11.684;2023-09-07T02:43:33;17.50;;;9.93;;
7295;SDS011;40758;54.038;11.684;2023-09-07T02:46:00;15.68;;;9.32;;
7295;SDS011;40758;54.038;11.684;2023-09-07T02:48:27;17.70;;;10.20;;
7295;SDS011;40758;54.038;11.684;2023-09-07T02:50:54;22.35;;;9.68;;
7295;SDS011;40758;54.038;11.684;2023-09-07T02:53:25;16.88;;;9.70;;
7295;SDS011;40758;54.038;11.684;2023-09-07T02:55:52;16.63;;;9.60;;
7295;SDS011;40758;54.038;11.684;2023-09-07T02:58:18;16.63;;;10.18;;
7295;SDS011;40758;54.038;11.684;2023-09-07T03:00:45;17.48;;;10.52;;
7295;SDS011;40758;54.038;11.684;2023-09-07T03:05:41;18.35;;;9.68;;
7295;SDS011;40758;54.038;11.684;2023-09-07T03:08:09;16.88;;;10.82;;
7295;SDS011;40758;54.038;11.684;2023-09-07T03:10:36;18.02;;;10.13;;
7295;SDS011;40758;54.038;11.684;2023-09-07T03:13:04;19.05;;;10.55;;
7295;SDS011;40758;54.038;11.684;2023-09-07T03:15:32;20.17;;;10.65;;
7295;SDS011;40758;54.038;11.684;2023-09-07T03:17:59;19.25;;;12.13;;
7295;SDS011;40758;54.038;11.684;2023-09-07T03:20:26;22.35;;;11.23;;
7295;SDS011;40758;54.038;11.684;2023-09-07T03:22:52;21.77;;;11.63;;
7295;SDS011;40758;54.038;11.684;2023-09-07T03:25:19;23.85;;;12.98;;
7295;SDS011;40758;54.038;11.684;2023-09-07T03:27:49;19.70;;;11.88;;
7295;SDS011;40758;54.038;11.684;2023-09-07T03:30:15;20.65;;;12.27;;
7295;SDS011;40758;54.038;11.684;2023-09-07T03:32:42;20.00;;;10.55;;
7295;SDS011;40758;54.038;11.684;2023-09-07T03:35:09;20.17;;;12.00;;
7295;SDS011;40758;54.038;11.684;2023-09-07T03:37:37;21.27;;;11.10;;
7295;SDS011;40758;54.038;11.684;2023-09-07T03:40:04;20.05;;;10.75;;
7295;SDS011;40758;54.038;11.684;2023-09-07T03:42:37;22.30;;;12.40;;
7295;SDS011;40758;54.038;11.684;2023-09-07T03:47:32;20.10;;;10.45;;
7295;SDS011;40758;54.038;11.684;2023-09-07T03:49:59;18.23;;;10.05;;
7295;SDS011;40758;54.038;11.684;2023-09-07T03:52:27;22.38;;;11.13;;
7295;SDS011;40758;54.038;11.684;2023-09-07T03:54:54;21.80;;;11.50;;
7295;SDS011;40758;54.038;11.684;2023-09-07T03:57:22;20.15;;;11.43;;
7295;SDS011;40758;54.038;11.684;2023-09-07T03:59:49;22.23;;;12.00;;
7295;SDS011;40758;54.038;11.684;2023-09-07T04:02:16;21.08;;;12.32;;
7295;SDS011;40758;54.038;11.684;2023-09-07T04:04:50;19.42;;;11.50;;
7295;SDS011;40758;54.038;11.684;2023-09-07T04:07:18;19.08;;;10.18;;
7295;SDS011;40758;54.038;11.684;2023-09-07T04:09:46;22.17;;;11.88;;
7295;SDS011;40758;54.038;11.684;2023-09-07T04:12:13;22.08;;;12.65;;
7295;SDS011;40758;54.038;11.684;2023-09-07T04:14:40;22.30;;;11.40;;
7295;SDS011;40758;54.038;11.684;2023-09-07T04:17:08;24.85;;;14.05;;
7295;SDS011;40758;54.038;11.684;2023-09-07T04:19:35;28.02;;;15.18;;
7295;SDS011;40758;54.038;11.684;2023-09-07T04:22:01;28.40;;;14.90;;
7295;SDS011;40758;54.038;11.684;2023-09-07T04:24:28;28.95;;;14.55;;
7295;SDS011;40758;54.038;11.684;2023-09-07T04:26:59;28.73;;;17.13;;
7295;SDS011;40758;54.038;11.684;2023-09-07T04:29:30;24.50;;;13.07;;
7295;SDS011;40758;54.038;11.684;2023-09-07T04:31:57;25.95;;;13.48;;
7295;SDS011;40758;54.038;11.684;2023-09-07T04:34:23;25.60;;;12.90;;
7295;SDS011;40758;54.038;11.684;2023-09-07T04:36:51;29.35;;;15.13;;
7295;SDS011;40758;54.038;11.684;2023-09-07T04:39:18;27.08;;;13.23;;
7295;SDS011;40758;54.038;11.684;2023-09-07T04:41:45;23.77;;;13.45;;
7295;SDS011;40758;54.038;11.684;2023-09-07T04:44:12;30.13;;;13.23;;
7295;SDS011;40758;54.038;11.684;2023-09-07T04:46:39;24.33;;;12.20;;
7295;SDS011;40758;54.038;11.684;2023-09-07T04:49:09;25.38;;;11.27;;
7295;SDS011;40758;54.038;11.684;2023-09-07T04:51:36;25.05;;;11.88;;
7295;SDS011;40758;54.038;11.684;2023-09-07T04:54:03;21.38;;;11.15;;
7295;SDS011;40758;54.038;11.684;2023-09-07T04:56:30;24.88;;;11.98;;
7295;SDS011;40758;54.038;11.684;2023-09-07T04:58:59;19.73;;;9.95;;
7295;SDS011;40758;54.038;11.684;2023-09-07T05:01:26;23.95;;;11.10;;
7295;SDS011;40758;54.038;11.684;2023-09-07T05:03:55;23.50;;;13.13;;
7295;SDS011;40758;54.038;11.684;2023-09-07T05:06:22;26.67;;;13.20;;
7295;SDS011;40758;54.038;11.684;2023-09-07T05:08:52;24.10;;;11.90;;
7295;SDS011;40758;54.038;11.684;2023-09-07T05:11:19;26.45;;;12.75;;
7295;SDS011;40758;54.038;11.684;2023-09-07T05:13:46;23.30;;;12.45;;
7295;SDS011;40758;54.038;11.684;2023-09-07T05:16:13;26.25;;;14.30;;
7295;SDS011;40758;54.038;11.684;2023-09-07T05:18:40;24.95;;;12.43;;
7295;SDS011;40758;54.038;11.684;2023-09-07T05:21:11;21.98;;;11.40;;
7295;SDS011;40758;54.038;11.684;2023-09-07T05:23:39;25.40;;;13.32;;
7295;SDS011;40758;54.038;11.684;2023-09-07T05:26:06;25.20;;;13.35;;
7295;SDS011;40758;54.038;11.684;2023-09-07T05:28:33;24.90;;;12.73;;
7295;SDS011;40758;54.038;11.684;2023-09-07T05:31:00;24.88;;;12.73;;
7295;SDS011;40758;54.038;11.684;2023-09-07T05:33:27;24.02;;;12.38;;
7295;SDS011;40758;54.038;11.684;2023-09-07T05:35:54;26.27;;;12.43;;
7295;SDS011;40758;54.038;11.684;2023-09-07T05:38:21;27.17;;;13.50;;
7295;SDS011;40758;54.038;11.684;2023-09-07T05:40:47;24.52;;;12.80;;
7295;SDS011;40758;54.038;11.684;2023-09-07T05:43:16;25.23;;;12.38;;
7295;SDS011;40758;54.038;11.684;2023-09-07T05:45:45;27.70;;;13.10;;
7295;SDS011;40758;54.038;11.684;2023-09-07T05:48:12;22.77;;;11.25;;
7295;SDS011;40758;54.038;11.684;2023-09-07T05:50:40;23.75;;;11.68;;
7295;SDS011;40758;54.038;11.684;2023-09-07T05:53:08;25.33;;;13.93;;
7295;SDS011;40758;54.038;11.684;2023-09-07T05:55:34;25.15;;;12.40;;
7295;SDS011;40758;54.038;11.684;2023-09-07T05:58:05;22.58;;;11.88;;
7295;SDS011;40758;54.038;11.684;2023-09-07T06:00:33;23.40;;;12.25;;
7295;SDS011;40758;54.038;11.684;2023-09-07T06:03:02;22.90;;;12.63;;
7295;SDS011;40758;54.038;11.684;2023-09-07T06:05:30;23.05;;;13.10;;
7295;SDS011;40758;54.038;11.684;2023-09-07T06:07:57;21.58;;;11.30;;
7295;SDS011;40758;54.038;11.684;2023-09-07T06:10:23;24.85;;;14.40;;
7295;SDS011;40758;54.038;11.684;2023-09-07T06:12:50;24.83;;;12.48;;
7295;SDS011;40758;54.038;11.684;2023-09-07T06:15:17;25.92;;;11.50;;
7295;SDS011;40758;54.038;11.684;2023-09-07T06:17:44;22.65;;;12.55;;
7295;SDS011;40758;54.038;11.684;2023-09-07T06:20:12;26.30;;;13.15;;
7295;SDS011;40758;54.038;11.684;2023-09-07T06:22:39;21.08;;;9.80;;
7295;SDS011;40758;54.038;11.684;2023-09-07T06:25:06;22.23;;;12.38;;
7295;SDS011;40758;54.038;11.684;2023-09-07T06:27:33;24.73;;;13.43;;
7295;SDS011;40758;54.038;11.684;2023-09-07T06:30:00;20.48;;;12.23;;
7295;SDS011;40758;54.038;11.684;2023-09-07T06:32:27;23.45;;;11.48;;
7295;SDS011;40758;54.038;11.684;2023-09-07T06:34:54;19.52;;;10.18;;
7295;SDS011;40758;54.038;11.684;2023-09-07T06:37:21;21.25;;;12.18;;
7295;SDS011;40758;54.038;11.684;2023-09-07T06:39:51;20.83;;;12.45;;
7295;SDS011;40758;54.038;11.684;2023-09-07T06:42:18;26.00;;;14.32;;
7295;SDS011;40758;54.038;11.684;2023-09-07T06:44:44;23.60;;;11.93;;
7295;SDS011;40758;54.038;11.684;2023-09-07T06:47:11;20.60;;;11.63;;
7295;SDS011;40758;54.038;11.684;2023-09-07T06:49:38;21.67;;;12.10;;
7295;SDS011;40758;54.038;11.684;2023-09-07T06:52:05;22.00;;;12.38;;
7295;SDS011;40758;54.038;11.684;2023-09-07T06:54:32;20.60;;;11.20;;
7295;SDS011;40758;54.038;11.684;2023-09-07T06:57:02;20.83;;;10.77;;
7295;SDS011;40758;54.038;11.684;2023-09-07T06:59:29;20.88;;;11.35;;
7295;SDS011;40758;54.038;11.684;2023-09-07T07:01:56;21.23;;;11.43;;
7295;SDS011;40758;54.038;11.684;2023-09-07T07:04:27;18.52;;;10.80;;
7295;SDS011;40758;54.038;11.684;2023-09-07T07:06:54;22.27;;;16.52;;
7295;SDS011;40758;54.038;11.684;2023-09-07T07:09:20;19.10;;;9.63;;
7295;SDS011;40758;54.038;11.684;2023-09-07T07:11:48;18.13;;;10.70;;
7295;SDS011;40758;54.038;11.684;2023-09-07T07:14:15;19.35;;;11.82;;
7295;SDS011;40758;54.038;11.684;2023-09-07T07:16:42;18.45;;;10.00;;
7295;SDS011;40758;54.038;11.684;2023-09-07T07:19:09;18.55;;;11.68;;
7295;SDS011;40758;54.038;11.684;2023-09-07T07:21:37;17.10;;;10.18;;
7295;SDS011;40758;54.038;11.684;2023-09-07T07:24:04;19.08;;;9.80;;
7295;SDS011;40758;54.038;11.684;2023-09-07T07:26:33;18.42;;;10.60;;
7295;SDS011;40758;54.038;11.684;2023-09-07T07:29:01;18.38;;;11.40;;
7295;SDS011;40758;54.038;11.684;2023-09-07T07:31:29;16.60;;;9.68;;
7295;SDS011;40758;54.038;11.684;2023-09-07T07:33:56;17.13;;;11.95;;
7295;SDS011;40758;54.038;11.684;2023-09-07T07:36:23;15.80;;;10.20;;
7295;SDS011;40758;54.038;11.684;2023-09-07T07:38:50;18.48;;;9.77;;
7295;SDS011;40758;54.038;11.684;2023-09-07T07:41:16;14.50;;;8.05;;
7295;SDS011;40758;54.038;11.684;2023-09-07T07:43:43;15.77;;;8.77;;
7295;SDS011;40758;54.038;11.684;2023-09-07T07:46:10;14.25;;;8.57;;
7295;SDS011;40758;54.038;11.684;2023-09-07T07:48:36;13.73;;;9.75;;
7295;SDS011;40758;54.038;11.684;2023-09-07T07:51:03;15.77;;;9.95;;
7295;SDS011;40758;54.038;11.684;2023-09-07T07:53:34;14.82;;;8.27;;
7295;SDS011;40758;54.038;11.684;2023-09-07T07:56:01;13.32;;;9.25;;
7295;SDS011;40758;54.038;11.684;2023-09-07T07:58:29;13.95;;;9.65;;
7295;SDS011;40758;54.038;11.684;2023-09-07T08:00:56;13.15;;;8.20;;
7295;SDS011;40758;54.038;11.684;2023-09-07T08:03:25;13.23;;;8.82;;
7295;SDS011;40758;54.038;11.684;2023-09-07T08:05:52;13.60;;;8.73;;
7295;SDS011;40758;54.038;11.684;2023-09-07T08:08:20;10.98;;;6.30;;
7295;SDS011;40758;54.038;11.684;2023-09-07T08:10:51;15.77;;;10.52;;
7295;SDS011;40758;54.038;11.684;2023-09-07T08:13:21;13.73;;;9.57;;
7295;SDS011;40758;54.038;11.684;2023-09-07T08:15:51;13.52;;;9.52;;
7295;SDS011;40758;54.038;11.684;2023-09-07T08:18:18;14.50;;;9.10;;
7295;SDS011;40758;54.038;11.684;2023-09-07T08:20:47;14.18;;;9.45;;
7295;SDS011;40758;54.038;11.684;2023-09-07T08:25:41;15.48;;;9.80;;
7295;SDS011;40758;54.038;11.684;2023-09-07T08:28:13;13.05;;;9.43;;
7295;SDS011;40758;54.038;11.684;2023-09-07T08:30:40;15.70;;;10.00;;
7295;SDS011;40758;54.038;11.684;2023-09-07T08:33:07;13.13;;;9.85;;
7295;SDS011;40758;54.038;11.684;2023-09-07T08:35:34;15.48;;;11.38;;
7295;SDS011;40758;54.038;11.684;2023-09-07T08:38:09;13.77;;;9.20;;
7295;SDS011;40758;54.038;11.684;2023-09-07T08:40:38;13.55;;;10.70;;
7295;SDS011;40758;54.038;11.684;2023-09-07T08:43:09;13.90;;;9.90;;
7295;SDS011;40758;54.038;11.684;2023-09-07T08:45:41;12.25;;;8.77;;
7295;SDS011;40758;54.038;11.684;2023-09-07T08:48:15;12.95;;;9.23;;
7295;SDS011;40758;54.038;11.684;2023-09-07T08:50:45;12.35;;;8.60;;
7295;SDS011;40758;54.038;11.684;2023-09-07T08:53:18;13.30;;;9.40;;
7295;SDS011;40758;54.038;11.684;2023-09-07T08:55:48;15.23;;;8.65;;
7295;SDS011;40758;54.038;11.684;2023-09-07T08:58:16;13.60;;;10.13;;
7295;SDS011;40758;54.038;11.684;2023-09-07T09:00:46;10.88;;;7.53;;
7295;SDS011;40758;54.038;11.684;2023-09-07T09:03:14;14.85;;;10.63;;
7295;SDS011;40758;54.038;11.684;2023-09-07T09:05:40;13.43;;;8.88;;
7295;SDS011;40758;54.038;11.684;2023-09-07T09:08:10;12.95;;;8.70;;
7295;SDS011;40758;54.038;11.684;2023-09-07T09:10:38;14.13;;;10.10;;
7295;SDS011;40758;54.038;11.684;2023-09-07T09:13:06;12.90;;;8.68;;
7295;SDS011;40758;54.038;11.684;2023-09-07T09:15:32;12.00;;;8.63;;
7295;SDS011;40758;54.038;11.684;2023-09-07T09:18:09;12.73;;;9.48;;
7295;SDS011;40758;54.038;11.684;2023-09-07T09:20:38;15.18;;;9.85;;
7295;SDS011;40758;54.038;11.684;2023-09-07T09:23:05;14.63;;;10.90;;
7295;SDS011;40758;54.038;11.684;2023-09-07T09:25:34;11.93;;;9.05;;
7295;SDS011;40758;54.038;11.684;2023-09-07T09:28:03;13.70;;;9.85;;
7295;SDS011;40758;54.038;11.684;2023-09-07T09:30:31;13.75;;;9.50;;
7295;SDS011;40758;54.038;11.684;2023-09-07T09:32:58;12.63;;;8.40;;
7295;SDS011;40758;54.038;11.684;2023-09-07T09:35:25;12.20;;;8.45;;
7295;SDS011;40758;54.038;11.684;2023-09-07T09:37:52;12.05;;;8.10;;
7295;SDS011;40758;54.038;11.684;2023-09-07T09:40:19;12.20;;;9.23;;
7295;SDS011;40758;54.038;11.684;2023-09-07T09:42:48;11.80;;;8.05;;
7295;SDS011;40758;54.038;11.684;2023-09-07T09:45:21;11.30;;;8.38;;
7295;SDS011;40758;54.038;11.684;2023-09-07T09:47:59;12.27;;;9.20;;
7295;SDS011;40758;54.038;11.684;2023-09-07T09:50:32;12.35;;;7.68;;
7295;SDS011;40758;54.038;11.684;2023-09-07T09:53:05;10.95;;;7.93;;
7295;SDS011;40758;54.038;11.684;2023-09-07T09:55:33;12.85;;;8.10;;
7295;SDS011;40758;54.038;11.684;2023-09-07T09:58:01;10.73;;;8.95;;
7295;SDS011;40758;54.038;11.684;2023-09-07T10:00:28;11.20;;;8.35;;
7295;SDS011;40758;54.038;11.684;2023-09-07T10:03:02;10.50;;;7.57;;
7295;SDS011;40758;54.038;11.684;2023-09-07T10:05:34;11.93;;;8.55;;
7295;SDS011;40758;54.038;11.684;2023-09-07T10:08:01;14.68;;;8.73;;
7295;SDS011;40758;54.038;11.684;2023-09-07T10:10:33;9.52;;;7.95;;
7295;SDS011;40758;54.038;11.684;2023-09-07T10:13:05;9.80;;;6.82;;
7295;SDS011;40758;54.038;11.684;2023-09-07T10:15:32;11.07;;;6.72;;
7295;SDS011;40758;54.038;11.684;2023-09-07T10:18:03;9.63;;;7.20;;
7295;SDS011;40758;54.038;11.684;2023-09-07T10:23:22;9.23;;;7.28;;
7295;SDS011;40758;54.038;11.684;2023-09-07T10:25:55;13.30;;;6.25;;
7295;SDS011;40758;54.038;11.684;2023-09-07T10:28:24;11.27;;;7.70;;
7295;SDS011;40758;54.038;11.684;2023-09-07T10:31:04;9.25;;;6.35;;
7295;SDS011;40758;54.038;11.684;2023-09-07T10:33:33;8.80;;;6.85;;
7295;SDS011;40758;54.038;11.684;2023-09-07T10:36:07;8.13;;;6.05;;
7295;SDS011;40758;54.038;11.684;2023-09-07T10:38:35;10.68;;;7.15;;
7295;SDS011;40758;54.038;11.684;2023-09-07T10:41:03;8.05;;;6.47;;
7295;SDS011;40758;54.038;11.684;2023-09-07T10:43:33;8.32;;;6.00;;
7295;SDS011;40758;54.038;11.684;2023-09-07T10:46:01;7.75;;;6.18;;
7295;SDS011;40758;54.038;11.684;2023-09-07T10:48:29;11.13;;;7.03;;
7295;SDS011;40758;54.038;11.684;2023-09-07T10:50:57;8.43;;;6.55;;
7295;SDS011;40758;54.038;11.684;2023-09-07T10:53:28;8.95;;;5.90;;
7295;SDS011;40758;54.038;11.684;2023-09-07T10:55:59;9.48;;;5.95;;
7295;SDS011;40758;54.038;11.684;2023-09-07T10:58:31;10.20;;;5.93;;
7295;SDS011;40758;54.038;11.684;2023-09-07T11:01:00;11.40;;;6.60;;
7295;SDS011;40758;54.038;11.684;2023-09-07T11:03:27;8.27;;;6.10;;
7295;SDS011;40758;54.038;11.684;2023-09-07T11:06:08;7.60;;;6.18;;
7295;SDS011;40758;54.038;11.684;2023-09-07T11:08:40;6.85;;;5.63;;
7295;SDS011;40758;54.038;11.684;2023-09-07T11:11:11;7.32;;;5.15;;
7295;SDS011;40758;54.038;11.684;2023-09-07T11:13:39;5.50;;;4.38;;
7295;SDS011;40758;54.038;11.684;2023-09-07T11:16:09;6.60;;;5.05;;
7295;SDS011;40758;54.038;11.684;2023-09-07T11:18:36;6.70;;;4.35;;
7295;SDS011;40758;54.038;11.684;2023-09-07T11:21:03;6.53;;;5.47;;
7295;SDS011;40758;54.038;11.684;2023-09-07T11:23:33;7.38;;;5.53;;
7295;SDS011;40758;54.038;11.684;2023-09-07T11:26:05;7.32;;;5.30;;
7295;SDS011;40758;54.038;11.684;2023-09-07T11:28:32;8.05;;;5.90;;
7295;SDS011;40758;54.038;11.684;2023-09-07T11:30:59;7.65;;;5.63;;
7295;SDS011;40758;54.038;11.684;2023-09-07T11:33:26;8.00;;;5.78;;
7295;SDS011;40758;54.038;11.684;2023-09-07T11:35:53;7.32;;;6.18;;
7295;SDS011;40758;54.038;11.684;2023-09-07T11:38:23;7.45;;;5.65;;
7295;SDS011;40758;54.038;11.684;2023-09-07T11:40:50;7.00;;;5.65;;
7295;SDS011;40758;54.038;11.684;2023-09-07T11:43:17;8.70;;;6.20;;
7295;SDS011;40758;54.038;11.684;2023-09-07T11:45:47;8.80;;;5.65;;
7295;SDS011;40758;54.038;11.684;2023-09-07T11:48:14;6.75;;;5.43;;
7295;SDS011;40758;54.038;11.684;2023-09-07T11:50:41;9.27;;;6.05;;
7295;SDS011;40758;54.038;11.684;2023-09-07T11:53:10;7.38;;;6.28;;
7295;SDS011;40758;54.038;11.684;2023-09-07T11:55:37;8.50;;;6.22;;
7295;SDS011;40758;54.038;11.684;2023-09-07T11:58:05;5.68;;;4.28;;
7295;SDS011;40758;54.038;11.684;2023-09-07T12:00:32;6.88;;;6.07;;
7295;SDS011;40758;54.038;11.684;2023-09-07T12:02:59;7.35;;;5.00;;
7295;SDS011;40758;54.038;11.684;2023-09-07T12:05:26;7.75;;;5.47;;
7295;SDS011;40758;54.038;11.684;2023-09-07T12:07:53;6.93;;;5.82;;
7295;SDS011;40758;54.038;11.684;2023-09-07T12:10:20;7.88;;;5.50;;
7295;SDS011;40758;54.038;11.684;2023-09-07T12:12:47;8.05;;;4.43;;
7295;SDS011;40758;54.038;11.684;2023-09-07T12:15:14;6.78;;;5.13;;
7295;SDS011;40758;54.038;11.684;2023-09-07T12:17:41;6.97;;;5.85;;
7295;SDS011;40758;54.038;11.684;2023-09-07T12:20:08;7.25;;;5.30;;
7295;SDS011;40758;54.038;11.684;2023-09-07T12:22:37;7.60;;;5.82;;
7295;SDS011;40758;54.038;11.684;2023-09-07T12:25:04;7.60;;;5.97;;
7295;SDS011;40758;54.038;11.684;2023-09-07T12:27:45;7.13;;;5.15;;
7295;SDS011;40758;54.038;11.684;2023-09-07T12:30:21;8.60;;;6.00;;
7295;SDS011;40758;54.038;11.684;2023-09-07T12:32:50;7.93;;;5.72;;
7295;SDS011;40758;54.038;11.684;2023-09-07T12:35:17;12.23;;;6.32;;
7295;SDS011;40758;54.038;11.684;2023-09-07T12:37:46;8.90;;;5.68;;
7295;SDS011;40758;54.038;11.684;2023-09-07T12:40:13;8.10;;;5.88;;
7295;SDS011;40758;54.038;11.684;2023-09-07T12:42:44;8.38;;;5.95;;
7295;SDS011;40758;54.038;11.684;2023-09-07T12:45:12;8.45;;;6.78;;
7295;SDS011;40758;54.038;11.684;2023-09-07T12:47:40;8.70;;;5.13;;
7295;SDS011;40758;54.038;11.684;2023-09-07T12:50:07;8.30;;;5.97;;
7295;SDS011;40758;54.038;11.684;2023-09-07T12:52:34;6.88;;;5.05;;
7295;SDS011;40758;54.038;11.684;2023-09-07T12:55:05;8.32;;;5.28;;
7295;SDS011;40758;54.038;11.684;2023-09-07T12:57:34;7.97;;;5.78;;
7295;SDS011;40758;54.038;11.684;2023-09-07T13:00:03;7.90;;;6.50;;
7295;SDS011;40758;54.038;11.684;2023-09-07T13:02:30;9.50;;;7.07;;
7295;SDS011;40758;54.038;11.684;2023-09-07T13:04:57;8.63;;;5.85;;
7295;SDS011;40758;54.038;11.684;2023-09-07T13:07:25;8.73;;;5.97;;
7295;SDS011;40758;54.038;11.684;2023-09-07T13:09:55;9.27;;;5.72;;
7295;SDS011;40758;54.038;11.684;2023-09-07T13:12:22;8.10;;;6.35;;
7295;SDS011;40758;54.038;11.684;2023-09-07T13:14:50;8.18;;;5.05;;
7295;SDS011;40758;54.038;11.684;2023-09-07T13:17:17;7.28;;;5.28;;
7295;SDS011;40758;54.038;11.684;2023-09-07T13:19:44;8.05;;;5.65;;
7295;SDS011;40758;54.038;11.684;2023-09-07T13:22:11;6.18;;;4.65;;
7295;SDS011;40758;54.038;11.684;2023-09-07T13:24:38;9.27;;;7.00;;
7295;SDS011;40758;54.038;11.684;2023-09-07T13:27:07;7.22;;;5.40;;
7295;SDS011;40758;54.038;11.684;2023-09-07T13:29:36;9.75;;;6.38;;
7295;SDS011;40758;54.038;11.684;2023-09-07T13:32:04;7.65;;;5.53;;
7295;SDS011;40758;54.038;11.684;2023-09-07T13:34:32;7.07;;;6.07;;
7295;SDS011;40758;54.038;11.684;2023-09-07T13:36:59;7.63;;;5.65;;
7295;SDS011;40758;54.038;11.684;2023-09-07T13:39:25;7.90;;;4.85;;
7295;SDS011;40758;54.038;11.684;2023-09-07T13:41:52;8.55;;;6.05;;
7295;SDS011;40758;54.038;11.684;2023-09-07T13:44:19;9.88;;;6.47;;
7295;SDS011;40758;54.038;11.684;2023-09-07T13:46:45;6.53;;;4.47;;
7295;SDS011;40758;54.038;11.684;2023-09-07T13:49:12;12.02;;;6.32;;
7295;SDS011;40758;54.038;11.684;2023-09-07T13:51:40;9.35;;;6.00;;
7295;SDS011;40758;54.038;11.684;2023-09-07T13:54:07;9.27;;;5.70;;
7295;SDS011;40758;54.038;11.684;2023-09-07T13:56:35;8.55;;;5.88;;
7295;SDS011;40758;54.038;11.684;2023-09-07T13:59:05;8.20;;;6.07;;
7295;SDS011;40758;54.038;11.684;2023-09-07T14:01:32;8.85;;;6.35;;
7295;SDS011;40758;54.038;11.684;2023-09-07T14:03:59;7.55;;;6.07;;
7295;SDS011;40758;54.038;11.684;2023-09-07T14:06:26;8.68;;;6.25;;
7295;SDS011;40758;54.038;11.684;2023-09-07T14:08:53;9.35;;;6.63;;
7295;SDS011;40758;54.038;11.684;2023-09-07T14:11:20;7.60;;;5.32;;
7295;SDS011;40758;54.038;11.684;2023-09-07T14:13:49;7.68;;;6.50;;
7295;SDS011;40758;54.038;11.684;2023-09-07T14:16:18;7.78;;;4.13;;
7295;SDS011;40758;54.038;11.684;2023-09-07T14:18:49;7.95;;;5.78;;
7295;SDS011;40758;54.038;11.684;2023-09-07T14:21:17;7.57;;;6.20;;
7295;SDS011;40758;54.038;11.684;2023-09-07T14:23:44;7.10;;;5.60;;
7295;SDS011;40758;54.038;11.684;2023-09-07T14:26:12;6.75;;;5.03;;
7295;SDS011;40758;54.038;11.684;2023-09-07T14:31:06;6.72;;;4.75;;
7295;SDS011;40758;54.038;11.684;2023-09-07T14:33:35;7.70;;;4.85;;
7295;SDS011;40758;54.038;11.684;2023-09-07T14:36:06;7.25;;;5.68;;
7295;SDS011;40758;54.038;11.684;2023-09-07T14:38:34;6.72;;;5.15;;
7295;SDS011;40758;54.038;11.684;2023-09-07T14:41:11;6.70;;;4.97;;
7295;SDS011;40758;54.038;11.684;2023-09-07T14:43:46;9.82;;;4.93;;
7295;SDS011;40758;54.038;11.684;2023-09-07T14:46:14;7.03;;;5.28;;
7295;SDS011;40758;54.038;11.684;2023-09-07T14:48:46;5.57;;;4.97;;
7295;SDS011;40758;54.038;11.684;2023-09-07T14:51:15;6.28;;;4.45;;
7295;SDS011;40758;54.038;11.684;2023-09-07T14:53:42;6.18;;;5.15;;
7295;SDS011;40758;54.038;11.684;2023-09-07T14:56:10;5.10;;;3.80;;